Time;durP1;ratioP1;P1;durP2;ratioP2;P2;SDS_P1;SDS_P2;PMS_P1;PMS_P2;Temp;Humidity;BMP_temperature;BMP_pressure;BME280_temperature;BME280_humidity;BME280_pressure;Samples;Min_cycle;Max_cycle;Signal;HPM_P1;HPM_P2
2023/12/31 00:00:33;;;;;;;0.98;0.37;;;;;;;4.77;59.44;99993.97;5327288;26;20096;-91
2023/12/31 00:02:59;;;;;;;2.10;2.00;;;;;;;4.65;59.44;99988.00;5326714;26;20095;-91
2023/12/31 00:05:25;;;;;;;2.80;1.90;;;;;;;4.80;59.45;99990.53;5326545;26;20079;-91
2023/12/31 00:07:50;;;;;;;0.93;0.85;;;;;;;4.59;59.43;99991.47;5326366;26;20114;-90
2023/12/31 00:10:17;;;;;;;0.28;0.28;;;;;;;4.48;59.42;99988.91;5326100;26;20052;-92
2023/12/31 00:12:43;;;;;;;0.30;0.30;;;;;;;4.72;59.43;99984.53;5326637;26;20113;-91
2023/12/31 00:15:08;;;;;;;0.57;0.57;;;;;;;4.63;59.44;99990.59;5326869;26;20757;-92
2023/12/31 00:17:34;;;;;;;0.57;0.57;;;;;;;4.61;59.43;99984.59;5326315;26;20104;-91
2023/12/31 00:19:59;;;;;;;1.55;1.42;;;;;;;4.68;59.44;99981.13;5326651;26;20072;-91
2023/12/31 00:22:25;;;;;;;1.23;1.17;;;;;;;5.06;59.46;99972.34;5326372;26;20119;-91
2023/12/31 00:24:54;;;;;;;0.37;0.20;;;;;;;4.78;59.44;99964.75;5327013;26;20093;-91
2023/12/31 00:27:19;;;;;;;2.90;2.70;;;;;;;4.83;59.44;99969.87;5345780;26;20023;-92
2023/12/31 00:29:44;;;;;;;1.35;0.70;;;;;;;4.52;59.43;99971.75;5344627;26;20135;-91
2023/12/31 00:32:10;;;;;;;1.65;1.45;;;;;;;4.55;59.43;99961.44;5327427;26;20123;-92
2023/12/31 00:34:52;;;;;;;3.50;1.00;;;;;;;4.52;59.43;99966.59;5345089;26;20130;-94
2023/12/31 00:37:17;;;;;;;0.20;0.20;;;;;;;4.39;59.42;99960.63;5344931;26;20070;-91
2023/12/31 00:39:42;;;;;;;0.17;0.17;;;;;;;4.52;59.43;99967.44;5325516;26;25134;-91
2023/12/31 00:42:08;;;;;;;0.00;0.00;;;;;;;4.73;59.44;99963.03;5326264;26;21068;-92
2023/12/31 00:44:33;;;;;;;5.37;2.62;;;;;;;4.74;59.44;99965.63;5326513;26;20124;-93
2023/12/31 00:46:59;;;;;;;0.00;0.00;;;;;;;4.77;59.44;99957.03;5327244;26;20124;-92
2023/12/31 00:49:24;;;;;;;1.08;0.98;;;;;;;4.91;59.45;99957.78;5345344;26;20111;-93
2023/12/31 00:51:52;;;;;;;0.20;0.20;;;;;;;4.77;59.44;99957.03;5344387;26;20173;-93
2023/12/31 00:54:17;;;;;;;0.20;0.20;;;;;;;4.66;59.44;99959.62;5326941;26;20068;-92
2023/12/31 00:56:43;;;;;;;0.17;0.17;;;;;;;4.59;59.43;99969.13;5326464;26;20126;-93
2023/12/31 00:59:08;;;;;;;0.10;0.10;;;;;;;4.71;59.43;99968.19;5328537;26;20098;-93
2023/12/31 01:01:34;;;;;;;0.00;0.00;;;;;;;4.72;59.43;99969.06;5327936;26;20129;-92
2023/12/31 01:03:59;;;;;;;0.00;0.00;;;;;;;4.60;59.44;99975.16;5327039;26;20083;-93
2023/12/31 01:06:25;;;;;;;0.62;0.62;;;;;;;4.55;59.43;99971.72;5345627;26;20082;-94
2023/12/31 01:08:51;;;;;;;0.40;0.40;;;;;;;4.48;59.42;99965.72;5326558;26;20086;-92
2023/12/31 01:11:17;;;;;;;0.40;0.40;;;;;;;4.63;59.43;99968.25;5326660;26;20084;-93
2023/12/31 01:13:42;;;;;;;0.00;0.00;;;;;;;4.32;59.41;99971.81;5326864;26;20072;-92
2023/12/31 01:16:07;;;;;;;0.85;0.55;;;;;;;4.39;59.42;99967.50;5326116;26;25672;-93
2023/12/31 01:18:33;;;;;;;1.08;1.08;;;;;;;4.20;59.40;99964.09;5327112;26;20138;-94
2023/12/31 01:20:58;;;;;;;1.55;0.93;;;;;;;4.11;59.40;99974.44;5326680;26;20076;-93
2023/12/31 01:23:25;;;;;;;0.17;0.17;;;;;;;4.28;59.42;99972.69;5326272;26;20912;-92
2023/12/31 01:25:51;;;;;;;3.87;1.67;;;;;;;4.25;59.41;99965.81;5345522;26;20458;-94
2023/12/31 01:28:16;;;;;;;0.00;0.00;;;;;;;4.15;59.41;99966.69;5326427;26;21909;-92
2023/12/31 01:30:41;;;;;;;1.90;0.88;;;;;;;4.21;59.41;99966.69;5326595;26;20424;-93
2023/12/31 01:33:07;;;;;;;0.65;0.65;;;;;;;4.15;59.41;99971.84;5327853;26;20365;-93
2023/12/31 01:35:32;;;;;;;0.15;0.15;;;;;;;4.23;59.41;99958.94;5326600;26;20090;-94
2023/12/31 01:37:58;;;;;;;1.23;1.12;;;;;;;4.12;59.40;99958.13;5344594;26;20132;-93
2023/12/31 01:40:23;;;;;;;0.30;0.30;;;;;;;4.07;59.40;99965.88;5344776;26;20132;-93
2023/12/31 01:42:48;;;;;;;0.65;0.65;;;;;;;4.32;59.41;99961.50;5326004;26;20091;-93
2023/12/31 01:45:14;;;;;;;0.05;0.05;;;;;;;4.29;59.42;99957.22;5326262;26;20110;-92
2023/12/31 01:47:39;;;;;;;0.30;0.30;;;;;;;4.31;59.42;99954.66;5328211;26;20059;-94
2023/12/31 01:50:05;;;;;;;0.77;0.77;;;;;;;4.29;59.42;99957.22;5346586;26;20079;-92
2023/12/31 01:52:34;;;;;;;0.55;0.55;;;;;;;4.26;59.41;99951.22;5327968;26;20411;-94
2023/12/31 01:55:04;;;;;;;0.45;0.45;;;;;;;4.22;59.41;99958.09;5327525;26;20111;-92
2023/12/31 01:57:29;;;;;;;0.50;0.50;;;;;;;4.15;59.41;99961.56;5328524;26;20070;-95
2023/12/31 01:59:55;;;;;;;3.08;2.30;;;;;;;4.31;59.41;99952.91;5328399;26;20060;-94
2023/12/31 02:02:21;;;;;;;0.30;0.30;;;;;;;4.49;59.42;99951.97;5329298;26;21749;-90
2023/12/31 02:04:46;;;;;;;3.03;1.58;;;;;;;4.59;59.43;99953.66;5330305;26;20072;-93
2023/12/31 02:07:12;;;;;;;0.80;0.80;;;;;;;4.62;59.44;99953.66;5346963;26;20389;-93
2023/12/31 02:09:37;;;;;;;1.23;1.23;;;;;;;4.66;59.44;99953.63;5328265;26;20107;-93
2023/12/31 02:12:03;;;;;;;0.73;0.73;;;;;;;4.49;59.44;99949.41;5328465;26;20410;-93
2023/12/31 02:14:28;;;;;;;0.35;0.35;;;;;;;4.28;59.42;99949.50;5328101;26;20061;-94
2023/12/31 02:16:53;;;;;;;1.45;1.35;;;;;;;4.29;59.42;99946.06;5328324;26;20062;-93
2023/12/31 02:19:19;;;;;;;0.57;0.57;;;;;;;4.17;59.41;99941.78;5328306;26;20750;-93
2023/12/31 02:21:45;;;;;;;9.73;2.15;;;;;;;4.20;59.40;99940.91;5346269;26;20054;-92
2023/12/31 02:24:11;;;;;;;3.95;2.17;;;;;;;4.25;59.41;99946.91;5327139;26;20153;-92
2023/12/31 02:26:37;;;;;;;0.25;0.25;;;;;;;4.25;59.41;99937.47;5347327;26;20104;-92
2023/12/31 02:29:02;;;;;;;5.18;2.47;;;;;;;4.26;59.41;99939.22;5345512;26;20106;-92
2023/12/31 02:31:27;;;;;;;0.80;0.80;;;;;;;4.26;59.41;99943.50;5326631;26;20993;-92
2023/12/31 02:33:53;;;;;;;0.65;0.65;;;;;;;4.27;59.42;99935.75;5327526;26;20417;-91
2023/12/31 02:36:18;;;;;;;0.47;0.47;;;;;;;4.16;59.41;99927.19;5327348;26;20080;-91
2023/12/31 02:38:44;;;;;;;0.47;0.47;;;;;;;4.15;59.41;99940.09;5326734;26;20079;-92
2023/12/31 02:41:09;;;;;;;1.42;1.33;;;;;;;4.30;59.42;99940.91;5345331;26;20095;-92
2023/12/31 02:43:34;;;;;;;0.75;0.75;;;;;;;4.24;59.41;99934.88;5326050;26;20108;-93
2023/12/31 02:46:00;;;;;;;2.53;2.33;;;;;;;4.09;59.41;99930.66;5326345;26;20108;-91
2023/12/31 02:48:25;;;;;;;10.27;1.15;;;;;;;4.08;59.40;99931.53;5327825;26;20143;-91
2023/12/31 02:50:51;;;;;;;0.93;0.93;;;;;;;4.15;59.41;99930.63;5326124;26;20074;-91
2023/12/31 02:53:16;;;;;;;2.20;2.05;;;;;;;4.15;59.41;99932.34;5345187;26;20072;-91
2023/12/31 02:55:41;;;;;;;6.85;2.62;;;;;;;4.12;59.40;99922.94;5326849;26;20316;-92
2023/12/31 02:58:07;;;;;;;0.50;0.50;;;;;;;4.15;59.41;99919.47;5325779;26;20138;-92
2023/12/31 03:00:32;;;;;;;0.30;0.30;;;;;;;3.98;59.40;99928.09;5326437;26;20072;-92
2023/12/31 03:02:58;;;;;;;1.23;1.15;;;;;;;4.07;59.40;99926.38;5327040;26;20115;-92
2023/12/31 03:05:23;;;;;;;3.55;1.40;;;;;;;3.95;59.39;99922.97;5346486;26;20447;-92
2023/12/31 03:07:51;;;;;;;1.80;1.17;;;;;;;4.01;59.40;99916.94;5326821;26;20423;-93
2023/12/31 03:10:17;;;;;;;0.37;0.37;;;;;;;3.94;59.39;99917.81;5346077;26;20123;-91
2023/12/31 03:12:42;;;;;;;0.32;0.32;;;;;;;3.96;59.39;99914.38;5327640;26;20158;-91
2023/12/31 03:15:09;;;;;;;2.47;1.30;;;;;;;3.94;59.39;99920.38;5346270;26;20084;-92
2023/12/31 03:17:34;;;;;;;0.00;0.00;;;;;;;3.91;59.40;99921.25;5328077;26;20082;-91
2023/12/31 03:20:00;;;;;;;1.90;1.10;;;;;;;3.71;59.38;99910.13;5327447;26;20076;-93
2023/12/31 03:22:25;;;;;;;0.10;0.10;;;;;;;3.72;59.38;99919.56;5327656;26;20506;-92
2023/12/31 03:24:50;;;;;;;0.75;0.75;;;;;;;3.69;59.38;99901.56;5327915;26;29943;-91
2023/12/31 03:27:16;;;;;;;2.12;0.82;;;;;;;3.68;59.37;99907.56;5328602;26;20059;-92
2023/12/31 03:29:41;;;;;;;0.80;0.80;;;;;;;3.55;59.37;99901.59;5328855;26;20143;-93
2023/12/31 03:32:08;;;;;;;0.28;0.28;;;;;;;3.51;59.37;99899.00;5330072;26;20118;-93
2023/12/31 03:34:34;;;;;;;0.20;0.20;;;;;;;3.57;59.37;99909.31;5328970;26;20124;-92
2023/12/31 03:37:01;;;;;;;0.85;0.85;;;;;;;3.57;59.38;99906.75;5347384;26;20545;-92
2023/12/31 03:39:26;;;;;;;0.08;0.08;;;;;;;3.50;59.37;99905.00;5328745;26;20484;-92
2023/12/31 03:41:51;;;;;;;0.08;0.08;;;;;;;3.44;59.36;99900.75;5327977;26;23911;-93
2023/12/31 03:44:17;;;;;;;0.70;0.70;;;;;;;3.30;59.36;99895.59;5328546;26;20071;-92
2023/12/31 03:46:42;;;;;;;0.40;0.37;;;;;;;3.34;59.36;99899.03;5328262;26;24342;-92
2023/12/31 03:49:08;;;;;;;0.25;0.25;;;;;;;3.43;59.36;99896.47;5329128;26;23361;-93
2023/12/31 03:51:33;;;;;;;0.25;0.25;;;;;;;3.43;59.36;99893.03;5328405;26;20056;-90
2023/12/31 03:53:59;;;;;;;0.13;0.13;;;;;;;3.28;59.36;99892.16;5346880;26;20060;-91
2023/12/31 03:56:24;;;;;;;0.10;0.10;;;;;;;3.30;59.35;99889.59;5329150;26;20143;-93
2023/12/31 03:58:49;;;;;;;0.55;0.55;;;;;;;3.26;59.36;99885.31;5328604;26;20072;-92
2023/12/31 04:01:15;;;;;;;2.85;2.53;;;;;;;3.22;59.35;99887.03;5328184;26;25646;-92
2023/12/31 04:03:40;;;;;;;0.70;0.60;;;;;;;3.26;59.36;99882.72;5329759;26;20518;-93
2023/12/31 04:06:09;;;;;;;0.93;0.93;;;;;;;3.27;59.36;99880.16;5331487;26;22540;-90
2023/12/31 04:08:34;;;;;;;1.45;0.65;;;;;;;3.18;59.35;99889.59;5349072;26;20363;-92
2023/12/31 04:11:00;;;;;;;0.28;0.28;;;;;;;3.24;59.35;99879.31;5328255;26;20071;-93
2023/12/31 04:13:25;;;;;;;0.10;0.10;;;;;;;3.30;59.35;99882.72;5328343;26;20400;-93
2023/12/31 04:15:50;;;;;;;1.73;1.15;;;;;;;3.24;59.35;99881.88;5328754;26;20421;-92
2023/12/31 04:18:16;;;;;;;0.55;0.55;;;;;;;3.31;59.36;99881.91;5327833;26;21707;-93
2023/12/31 04:20:42;;;;;;;0.00;0.00;;;;;;;3.15;59.35;99884.47;5347335;26;20051;-91
2023/12/31 04:23:08;;;;;;;1.12;0.75;;;;;;;3.17;59.34;99886.19;5328613;26;20055;-92
2023/12/31 04:25:33;;;;;;;0.80;0.80;;;;;;;3.12;59.35;99882.75;5328737;26;22786;-92
2023/12/31 04:27:59;;;;;;;0.20;0.20;;;;;;;3.20;59.36;99882.75;5328536;26;20075;-92
2023/12/31 04:30:25;;;;;;;0.60;0.60;;;;;;;3.08;59.34;99888.75;5346768;26;20426;-91
2023/12/31 04:32:51;;;;;;;0.68;0.68;;;;;;;3.17;59.36;99888.75;5329513;26;20113;-91
2023/12/31 04:35:16;;;;;;;1.98;1.75;;;;;;;3.08;59.35;99893.91;5346510;26;20369;-90
2023/12/31 04:37:42;;;;;;;0.22;0.22;;;;;;;3.07;59.34;99898.16;5327060;26;20118;-91
2023/12/31 04:40:07;;;;;;;2.03;1.87;;;;;;;3.05;59.34;99891.31;5326998;26;20362;-91
2023/12/31 04:42:33;;;;;;;0.73;0.73;;;;;;;2.96;59.34;99893.87;5327341;26;20071;-91
2023/12/31 04:45:04;;;;;;;0.30;0.30;;;;;;;3.11;59.35;99891.31;5326594;26;25629;-90
2023/12/31 04:47:29;;;;;;;0.65;0.65;;;;;;;3.05;59.34;99897.31;5329388;26;20441;-90
2023/12/31 04:49:54;;;;;;;0.20;0.20;;;;;;;2.94;59.33;99895.59;5327407;26;20152;-90
2023/12/31 04:52:20;;;;;;;0.75;0.73;;;;;;;2.88;59.34;99887.88;5364222;26;20441;-90
2023/12/31 04:54:45;;;;;;;3.15;2.20;;;;;;;2.88;59.34;99888.75;5345216;26;20804;-90
2023/12/31 04:57:11;;;;;;;5.37;1.95;;;;;;;2.92;59.33;99881.88;5327178;26;20136;-91
2023/12/31 04:59:36;;;;;;;1.08;0.47;;;;;;;2.98;59.34;99887.88;5326510;26;20068;-90
2023/12/31 05:02:02;;;;;;;1.35;1.20;;;;;;;2.82;59.34;99882.72;5327306;26;20086;-91
2023/12/31 05:04:27;;;;;;;0.10;0.10;;;;;;;2.80;59.32;99879.28;5328133;26;20078;-91
2023/12/31 05:06:53;;;;;;;0.98;0.98;;;;;;;2.95;59.33;99880.16;5327420;26;20084;-91
2023/12/31 05:09:18;;;;;;;1.48;1.37;;;;;;;2.91;59.33;99872.47;5330434;26;20085;-92
2023/12/31 05:11:44;;;;;;;0.10;0.10;;;;;;;3.03;59.35;99882.72;5327684;26;21573;-91
2023/12/31 05:14:09;;;;;;;0.50;0.50;;;;;;;2.90;59.34;99881.88;5327521;26;20138;-90
2023/12/31 05:16:35;;;;;;;0.30;0.30;;;;;;;2.95;59.33;99881.88;5327143;26;20123;-91
2023/12/31 05:19:00;;;;;;;3.30;2.75;;;;;;;2.94;59.33;99881.03;5327298;26;20503;-91
2023/12/31 05:21:26;;;;;;;1.98;1.55;;;;;;;2.82;59.33;99886.13;5327410;26;20068;-90
2023/12/31 05:23:52;;;;;;;0.88;0.55;;;;;;;2.80;59.33;99877.56;5327899;26;20113;-91
2023/12/31 05:26:17;;;;;;;0.65;0.65;;;;;;;2.74;59.33;99875.84;5329112;26;20076;-92
2023/12/31 05:28:43;;;;;;;0.47;0.47;;;;;;;2.73;59.32;99871.56;5346629;26;20068;-92
2023/12/31 05:31:09;;;;;;;0.45;0.45;;;;;;;2.69;59.32;99872.44;5327480;26;20296;-91
2023/12/31 05:33:35;;;;;;;0.40;0.40;;;;;;;2.81;59.33;99868.16;5329775;26;20078;-90
2023/12/31 05:36:01;;;;;;;0.88;0.88;;;;;;;2.80;59.32;99863.84;5327522;26;21362;-90
2023/12/31 05:38:26;;;;;;;0.62;0.62;;;;;;;2.56;59.31;99873.25;5327420;26;20090;-90
2023/12/31 05:40:51;;;;;;;0.90;0.90;;;;;;;2.72;59.33;99867.28;5345819;26;20071;-91
2023/12/31 05:43:17;;;;;;;0.00;0.00;;;;;;;2.70;59.32;99876.72;5327177;26;20283;-91
2023/12/31 05:45:42;;;;;;;0.25;0.25;;;;;;;2.63;59.32;99874.13;5327160;26;20644;-90
2023/12/31 05:48:07;;;;;;;0.95;0.90;;;;;;;2.78;59.33;99871.56;5366788;26;20092;-90
2023/12/31 05:50:33;;;;;;;0.93;0.93;;;;;;;2.90;59.34;99874.16;5364134;26;20087;-91
2023/12/31 05:52:58;;;;;;;1.45;1.35;;;;;;;2.74;59.33;99877.56;5346096;26;20104;-91
2023/12/31 05:55:24;;;;;;;1.23;1.08;;;;;;;2.69;59.32;99869.84;5327121;26;20130;-89
2023/12/31 05:57:50;;;;;;;1.98;1.87;;;;;;;2.83;59.33;99875.00;5326853;26;22383;-91
2023/12/31 06:00:16;;;;;;;0.57;0.57;;;;;;;2.62;59.32;99883.56;5327632;26;20056;-92
2023/12/31 06:02:41;;;;;;;3.90;3.15;;;;;;;2.74;59.33;99870.72;5329993;26;20332;-92
2023/12/31 06:05:07;;;;;;;0.98;0.98;;;;;;;2.69;59.32;99879.28;5328836;26;20328;-93
2023/12/31 06:11:09;;;;;;;1.48;1.37;;;;;;;2.72;59.33;99869.84;5337811;26;20160;-90
2023/12/31 06:13:34;;;;;;;1.73;1.10;;;;;;;2.63;59.32;99864.72;5329075;26;20403;-91
2023/12/31 06:16:00;;;;;;;1.52;0.73;;;;;;;2.66;59.33;99869.00;5327366;26;23431;-91
2023/12/31 06:18:25;;;;;;;1.87;1.77;;;;;;;2.75;59.33;99857.00;5328033;26;20090;-93
2023/12/31 06:20:51;;;;;;;1.08;1.08;;;;;;;2.78;59.32;99864.72;5328130;26;20083;-91
2023/12/31 06:23:16;;;;;;;0.35;0.32;;;;;;;2.95;59.33;99869.88;5326979;26;20084;-89
2023/12/31 06:25:42;;;;;;;3.42;2.55;;;;;;;2.86;59.33;99863.87;5363638;26;20107;-90
2023/12/31 06:28:07;;;;;;;0.70;0.70;;;;;;;2.96;59.35;99863.03;5344858;26;20840;-91
2023/12/31 06:30:33;;;;;;;0.62;0.60;;;;;;;3.11;59.35;99855.31;5326722;26;21002;-90
2023/12/31 06:32:58;;;;;;;4.80;2.12;;;;;;;2.83;59.33;99857.00;5328656;26;20353;-90
2023/12/31 06:35:23;;;;;;;0.10;0.10;;;;;;;2.73;59.33;99855.28;5326103;26;22945;-89
2023/12/31 06:37:49;;;;;;;0.43;0.43;;;;;;;2.90;59.34;99858.75;5326206;26;21011;-91
2023/12/31 06:40:14;;;;;;;0.37;0.37;;;;;;;2.78;59.33;99863.84;5344982;26;20063;-90
2023/12/31 06:42:40;;;;;;;0.43;0.43;;;;;;;2.83;59.34;99861.28;5328027;26;20075;-91
2023/12/31 06:45:06;;;;;;;1.58;1.48;;;;;;;2.79;59.33;99855.28;5328021;26;20091;-91
2023/12/31 06:47:31;;;;;;;1.17;1.08;;;;;;;2.80;59.32;99851.00;5330531;26;20128;-90
2023/12/31 06:49:56;;;;;;;1.60;1.50;;;;;;;2.68;59.33;99855.28;5328005;26;20384;-91
2023/12/31 06:52:22;;;;;;;1.27;1.23;;;;;;;2.67;59.32;99848.44;5327687;26;24951;-91
2023/12/31 06:54:47;;;;;;;2.78;0.98;;;;;;;2.75;59.33;99857.00;5344833;26;20133;-91
2023/12/31 06:57:22;;;;;;;1.65;1.50;;;;;;;2.81;59.34;99863.00;5345405;26;20929;-95
2023/12/31 06:59:53;;;;;;;0.75;0.75;;;;;;;2.89;59.34;99858.75;5365837;26;20051;-92
2023/12/31 07:02:25;;;;;;;2.37;1.05;;;;;;;2.82;59.33;99849.28;5332592;26;20187;-94
2023/12/31 07:04:54;;;;;;;0.47;0.47;;;;;;;2.85;59.33;99857.03;5347817;26;20076;-91
2023/12/31 07:07:19;;;;;;;3.28;2.87;;;;;;;3.10;59.35;99851.03;5347231;26;20052;-90
2023/12/31 07:10:05;;;;;;;0.20;0.20;;;;;;;3.28;59.36;99845.84;5328401;26;20071;-94
2023/12/31 07:12:41;;;;;;;0.98;0.98;;;;;;;3.27;59.36;99849.28;5331650;26;20350;-90
2023/12/31 07:17:42;;;;;;;2.03;1.85;;;;;;;3.44;59.36;99836.41;5322879;26;20081;-95
2023/12/31 07:20:08;;;;;;;1.77;1.67;;;;;;;3.53;59.38;99845.81;5284280;27;20856;-92
2023/12/31 07:22:33;;;;;;;2.03;1.00;;;;;;;3.74;59.38;99840.63;5303511;27;20063;-92
2023/12/31 07:25:00;;;;;;;4.37;3.17;;;;;;;3.93;59.39;99837.12;5305884;27;20191;-92
2023/12/31 07:27:26;;;;;;;7.28;5.05;;;;;;;4.24;59.41;99839.56;5284967;27;20053;-93
2023/12/31 07:29:54;;;;;;;1.90;1.80;;;;;;;4.18;59.41;99837.03;5285032;27;20048;-96
2023/12/31 07:32:22;;;;;;;0.90;0.90;;;;;;;4.22;59.42;99843.88;5287424;27;20111;-92
2023/12/31 07:34:47;;;;;;;4.40;4.05;;;;;;;4.31;59.42;99841.25;5286307;27;20126;-91
2023/12/31 07:37:13;;;;;;;2.67;2.50;;;;;;;4.71;59.43;99838.41;5284375;27;20065;-91
2023/12/31 07:39:41;;;;;;;1.87;1.75;;;;;;;4.88;59.45;99836.59;5285013;27;20052;-91
2023/12/31 07:42:06;;;;;;;4.57;2.37;;;;;;;4.99;59.45;99834.78;5285056;27;20697;-92
2023/12/31 07:44:32;;;;;;;2.40;1.80;;;;;;;5.10;59.46;99832.97;5303185;27;20076;-91
2023/12/31 07:46:58;;;;;;;1.50;1.40;;;;;;;5.15;59.46;99835.50;5287806;27;20101;-91
2023/12/31 07:49:24;;;;;;;1.00;1.00;;;;;;;5.12;59.46;99830.38;5285012;27;20097;-92
2023/12/31 07:51:50;;;;;;;0.68;0.62;;;;;;;5.26;59.47;99828.53;5284357;27;20064;-89
2023/12/31 07:54:15;;;;;;;3.08;1.12;;;;;;;5.35;59.47;99825.00;5320658;27;20060;-91
2023/12/31 07:56:41;;;;;;;1.20;1.10;;;;;;;5.43;59.48;99829.22;5283997;27;20080;-92
2023/12/31 07:59:07;;;;;;;2.42;2.22;;;;;;;5.46;59.48;99818.03;5284449;27;20158;-91
2023/12/31 08:01:32;;;;;;;1.83;1.73;;;;;;;5.49;59.48;99828.31;5285239;27;20406;-91
2023/12/31 08:03:58;;;;;;;0.93;0.45;;;;;;;5.47;59.48;99830.91;5284547;27;20112;-92
2023/12/31 08:06:23;;;;;;;3.70;3.40;;;;;;;5.56;59.49;99822.22;5284889;27;20056;-91
2023/12/31 08:08:49;;;;;;;1.12;1.12;;;;;;;5.61;59.49;99825.59;5284815;27;20111;-91
2023/12/31 08:11:14;;;;;;;0.65;0.65;;;;;;;5.52;59.48;99823.97;5302692;27;20116;-90
2023/12/31 08:13:39;;;;;;;1.00;0.50;;;;;;;5.64;59.49;99817.81;5284359;27;20074;-92
2023/12/31 08:16:07;;;;;;;0.57;0.57;;;;;;;5.73;59.49;99817.72;5285208;27;20049;-90
2023/12/31 08:18:34;;;;;;;2.62;2.42;;;;;;;5.83;59.50;99815.88;5284562;27;20408;-91
2023/12/31 08:20:59;;;;;;;1.12;0.98;;;;;;;5.69;59.50;99818.63;5284611;27;20068;-90
2023/12/31 08:23:25;;;;;;;1.73;0.62;;;;;;;5.77;59.50;99810.78;5284829;27;20361;-91
2023/12/31 08:25:50;;;;;;;0.50;0.50;;;;;;;5.85;59.50;99816.72;5303185;27;20057;-90
2023/12/31 08:28:16;;;;;;;0.65;0.65;;;;;;;5.84;59.51;99810.69;5284121;27;20091;-88
2023/12/31 08:30:41;;;;;;;1.70;1.52;;;;;;;5.87;59.50;99818.41;5284415;27;21538;-91
2023/12/31 08:33:10;;;;;;;1.75;1.45;;;;;;;6.13;59.51;99806.91;5284428;27;20053;-91
2023/12/31 08:35:35;;;;;;;3.50;1.85;;;;;;;6.18;59.52;99818.06;5285392;27;20061;-91
2023/12/31 08:38:01;;;;;;;1.70;1.45;;;;;;;6.26;59.52;99813.66;5284013;27;20434;-91
2023/12/31 08:40:26;;;;;;;0.73;0.73;;;;;;;6.38;59.53;99818.63;5284450;27;20064;-90
2023/12/31 08:43:01;;;;;;;3.60;2.12;;;;;;;6.45;59.54;99814.25;5301917;27;20108;-91
2023/12/31 08:45:27;;;;;;;2.00;1.80;;;;;;;6.44;59.53;99813.41;5303846;27;20106;-91
2023/12/31 08:47:52;;;;;;;3.75;2.67;;;;;;;6.51;59.54;99806.41;5284869;27;20052;-91
2023/12/31 08:50:18;;;;;;;2.80;2.60;;;;;;;6.59;59.55;99812.31;5284157;27;20076;-90
2023/12/31 08:52:45;;;;;;;0.55;0.55;;;;;;;6.71;59.55;99811.28;5302635;27;20083;-91
2023/12/31 08:55:10;;;;;;;3.45;2.60;;;;;;;6.75;59.55;99816.38;5302421;27;20052;-90
2023/12/31 08:57:38;;;;;;;2.62;2.47;;;;;;;6.85;59.56;99805.88;5284204;27;20049;-91
2023/12/31 09:00:04;;;;;;;1.45;1.23;;;;;;;6.98;59.57;99812.56;5284242;27;20083;-91
2023/12/31 09:02:31;;;;;;;0.75;0.75;;;;;;;7.11;59.58;99808.06;5321225;27;20066;-91
2023/12/31 09:04:56;;;;;;;4.68;1.77;;;;;;;7.15;59.57;99809.72;5283238;27;20072;-90
2023/12/31 09:07:22;;;;;;;1.45;1.40;;;;;;;7.13;59.58;99806.28;5284069;27;20368;-92
2023/12/31 09:09:47;;;;;;;2.12;1.50;;;;;;;7.15;59.57;99794.19;5283566;27;20081;-91
2023/12/31 09:12:12;;;;;;;1.23;0.80;;;;;;;7.09;59.58;99808.91;5284098;27;20488;-91
2023/12/31 09:14:38;;;;;;;1.17;0.62;;;;;;;7.19;59.58;99795.81;5284327;27;20113;-92
2023/12/31 09:17:03;;;;;;;2.25;1.83;;;;;;;7.29;59.58;99803.37;5320670;26;20086;-91
2023/12/31 09:19:30;;;;;;;0.62;0.52;;;;;;;7.22;59.58;99794.03;5284008;27;20116;-91
2023/12/31 09:21:55;;;;;;;2.83;2.25;;;;;;;7.26;59.58;99793.09;5284395;27;20065;-92
2023/12/31 09:24:21;;;;;;;0.52;0.52;;;;;;;7.32;59.58;99792.12;5284934;27;20095;-91
2023/12/31 09:26:46;;;;;;;2.08;1.87;;;;;;;7.31;59.58;99783.50;5302888;27;20064;-91
2023/12/31 09:29:11;;;;;;;1.12;1.02;;;;;;;7.20;59.58;99787.19;5302305;27;20115;-91
2023/12/31 09:31:38;;;;;;;3.83;1.77;;;;;;;7.14;59.57;99774.34;5285150;27;20084;-91
2023/12/31 09:34:03;;;;;;;0.77;0.77;;;;;;;7.19;59.58;99757.84;5284481;27;20061;-91
2023/12/31 09:36:34;;;;;;;2.67;0.90;;;;;;;7.26;59.58;99761.16;5284523;27;20056;-92
2023/12/31 09:38:59;;;;;;;0.88;0.88;;;;;;;7.26;59.58;99761.16;5284877;27;20064;-91
2023/12/31 09:41:25;;;;;;;3.62;1.95;;;;;;;7.40;59.59;99761.78;5284298;27;20131;-92
2023/12/31 09:43:51;;;;;;;2.58;2.00;;;;;;;7.43;59.59;99756.53;5284451;27;20374;-92
2023/12/31 09:46:17;;;;;;;2.50;2.30;;;;;;;7.46;59.59;99751.28;5285637;27;20628;-91
2023/12/31 09:48:42;;;;;;;8.60;3.40;;;;;;;7.51;59.59;99735.66;5284188;27;20079;-91
2023/12/31 09:51:08;;;;;;;2.78;2.58;;;;;;;7.44;59.59;99741.84;5284103;27;20155;-91
2023/12/31 09:53:59;;;;;;;2.67;2.50;;;;;;;7.51;59.60;99738.25;5283991;27;20106;-92
2023/12/31 09:56:28;;;;;;;2.33;2.22;;;;;;;7.58;59.60;99738.12;5305557;27;20119;-91
2023/12/31 09:58:53;;;;;;;4.78;2.15;;;;;;;7.54;59.59;99739.03;5284076;27;20080;-92
2023/12/31 10:01:19;;;;;;;1.15;1.10;;;;;;;7.64;59.60;99743.16;5284832;27;20152;-91
2023/12/31 10:03:45;;;;;;;2.10;1.90;;;;;;;7.69;59.61;99746.50;5284413;27;20122;-92
2023/12/31 10:06:10;;;;;;;6.60;5.70;;;;;;;7.77;59.61;99738.56;5303471;27;20056;-92
2023/12/31 10:08:35;;;;;;;8.15;6.57;;;;;;;7.96;59.62;99734.72;5284534;27;20088;-93
2023/12/31 10:11:01;;;;;;;4.40;4.00;;;;;;;8.13;59.63;99730.91;5283775;27;20393;-92
2023/12/31 10:13:37;;;;;;;6.22;2.78;;;;;;;8.11;59.63;99720.56;5284257;27;20461;-91
2023/12/31 10:16:12;;;;;;;3.25;3.05;;;;;;;8.17;59.63;99711.81;5302900;27;20056;-93
2023/12/31 10:18:38;;;;;;;1.15;1.15;;;;;;;8.14;59.64;99694.56;5285727;27;20068;-91
2023/12/31 10:21:04;;;;;;;0.85;0.85;;;;;;;7.93;59.62;99677.75;5286333;27;20629;-92
2023/12/31 10:23:29;;;;;;;3.35;2.35;;;;;;;8.19;59.63;99691.88;5286032;27;20126;-91
2023/12/31 10:25:54;;;;;;;2.00;1.90;;;;;;;8.25;59.64;99677.00;5284771;27;22928;-90
2023/12/31 10:28:20;;;;;;;12.85;3.03;;;;;;;8.41;59.64;99676.69;5303261;27;20074;-92
2023/12/31 10:30:48;;;;;;;3.97;1.65;;;;;;;8.44;59.65;99672.28;5285396;27;20131;-93
2023/12/31 10:33:15;;;;;;;7.30;3.40;;;;;;;8.49;59.65;99662.62;5304007;27;20444;-92
2023/12/31 10:35:40;;;;;;;4.55;2.28;;;;;;;8.56;59.65;99653.81;5285317;27;20163;-91
2023/12/31 10:38:07;;;;;;;10.35;4.45;;;;;;;8.64;59.65;99653.62;5303225;27;20120;-92
2023/12/31 10:40:35;;;;;;;2.55;2.35;;;;;;;8.61;59.66;99656.28;5285296;27;20085;-91
2023/12/31 10:43:02;;;;;;;5.62;2.75;;;;;;;8.78;59.67;99661.06;5286027;27;20060;-92
2023/12/31 10:45:27;;;;;;;2.80;2.60;;;;;;;8.82;59.67;99647.97;5285410;27;20024;-92
2023/12/31 10:47:54;;;;;;;3.42;2.47;;;;;;;8.93;59.67;99652.84;5285128;27;20102;-90
2023/12/31 10:50:24;;;;;;;1.75;1.65;;;;;;;8.98;59.68;99642.34;5285165;27;20647;-91
2023/12/31 10:52:53;;;;;;;1.67;1.58;;;;;;;9.06;59.68;99637.81;5284718;27;20086;-90
2023/12/31 10:55:19;;;;;;;4.68;4.03;;;;;;;9.00;59.68;99632.78;5283142;27;20057;-89
2023/12/31 10:57:45;;;;;;;1.90;1.67;;;;;;;9.08;59.68;99623.03;5302164;27;20095;-89
2023/12/31 11:00:13;;;;;;;7.07;4.97;;;;;;;9.07;59.68;99626.53;5302290;27;20431;-90
2023/12/31 11:02:38;;;;;;;4.57;1.90;;;;;;;9.08;59.68;99617.84;5303150;27;20055;-91
2023/12/31 11:05:04;;;;;;;1.10;1.10;;;;;;;9.10;59.68;99609.09;5302043;27;20107;-90
2023/12/31 11:07:40;;;;;;;7.82;4.00;;;;;;;9.10;59.68;99608.25;5284561;27;20102;-92
2023/12/31 11:10:06;;;;;;;1.15;1.15;;;;;;;9.26;59.69;99598.28;5285115;27;20158;-91
2023/12/31 11:12:31;;;;;;;4.37;2.83;;;;;;;9.20;59.69;99601.91;5283752;27;20073;-90
2023/12/31 11:15:11;;;;;;;2.28;2.15;;;;;;;9.16;59.69;99595.94;5303031;27;20156;-91
2023/12/31 11:17:46;;;;;;;1.35;1.30;;;;;;;9.20;59.69;99596.69;5284543;27;20119;-90
2023/12/31 11:23:39;;;;;;;5.95;3.30;;;;;;;9.15;59.69;99586.44;5307354;27;20060;-91
2023/12/31 11:26:43;;;;;;;;;;;;;;;;;;;;;
2023/12/31 11:32:27;;;;;;;3.30;3.10;;;;;;;9.33;59.69;99559.09;5253262;27;20069;-92
2023/12/31 11:34:53;;;;;;;7.55;4.35;;;;;;;9.31;59.69;99549.66;5283242;27;20052;-89
2023/12/31 11:37:19;;;;;;;1.25;1.15;;;;;;;9.30;59.70;99548.81;5320384;27;20091;-91
2023/12/31 11:40:24;;;;;;;4.70;3.53;;;;;;;9.27;59.70;99542.84;5301980;27;20060;-88
2023/12/31 11:43:19;;;;;;;4.00;2.42;;;;;;;9.47;59.70;99543.97;5292536;27;20079;-90
2023/12/31 11:46:30;;;;;;;2.42;2.22;;;;;;;9.53;59.70;99545.50;5304967;27;20071;-90
2023/12/31 11:49:36;;;;;;;5.18;2.15;;;;;;;9.31;59.69;99534.06;5310403;27;20052;-90
2023/12/31 11:52:04;;;;;;;1.35;0.77;;;;;;;9.24;59.69;99533.41;5303916;27;20717;-89
2023/12/31 11:54:39;;;;;;;5.40;4.07;;;;;;;9.18;59.68;99529.22;5320721;27;20742;-90